Terminal Aerodrome Forecast
Issued by NWS Spokane, WA

Home | Current Version | Previous Version | Text Only | Print | Product List | Glossary On
Versions: 1 2 3 4 5 6 7 8 9 10 11 12 13 14 15 16 17 18 19 20 21 22
000
FTUS46 KOTX 151738
TAFLWS
TAF
KLWS 151738Z 1518/1618 15003KT 5SM BR BKN010 BKN018
     FM152030 30004KT P6SM BKN020
     FM152200 29004KT 1SM -SN SCT005 OVC015
     FM160200 24004KT 3SM -SHSN BR BKN008 OVC015
     FM160600 29003KT 6SM BR OVC010=

USA.gov is the U.S. government's official web portal to all federal, state and local government web resources and services.